Aquaprincess — SVAN5 — position and weather

sailwx.info

Track history (hours):
 
Tides and Currents Weather Stations Pressure Air Temp Water Temp Dewpoint Dewpoint Depression Visibility Wind Speed Wind Dir Waves Ship Positions

Aquaprincess

Last reported at 2018-Feb-12 17:03 UTC. Time now 2018-Feb-19 04:35 UTC.
Position N 36°43' W 075°37'.

Length 292 m; draft 14.3 m.

Type: Cargo ship. MMSI: 240981000.

Date/timePositionNaut miles runAvg speedWind from/ knotsBaromVisibWave heightAir tempDewpointWater temp
2018-Feb-12 17:03N 36°43' W 075°37'1 9.4
2018-Feb-12 16:56N 36°44' W 075°38'4 8.7
2018-Feb-12 16:29N 36°47' W 075°42'4 8.4
2018-Feb-12 16:00N 36°49' W 075°46'4 9.1
2018-Feb-12 15:31N 36°51' W 075°50'5 9.3
2018-Feb-12 15:01N 36°55' W 075°55'4 8.6
2018-Feb-12 14:30N 36°57' W 075°59'4 8.5
2018-Feb-12 14:00N 37°01' W 076°02'4 8.8
2018-Feb-12 13:30N 37°04' W 076°06'4 8.3
2018-Feb-12 12:59N 37°08' W 076°08'4 7.7
2018-Feb-12 12:29N 37°12' W 076°09'4 7.9
2018-Feb-12 11:59N 37°15' W 076°08'41 8.4
2018-Feb-12 07:04N 37°57' W 076°10'112.2
2018-Feb-12 06:59N 37°57' W 076°10'611.9
2018-Feb-12 06:28N 38°03' W 076°13'2311.8
2018-Feb-12 04:31N 38°25' W 076°21'112.0
2018-Feb-12 04:27N 38°26' W 076°22'911.6
2018-Feb-12 03:41N 38°34' W 076°26'211.5
2018-Feb-12 03:30N 38°36' W 076°26'611.3
2018-Feb-12 03:00N 38°42' W 076°26'611.5
2018-Feb-12 02:31N 38°47' W 076°25'611.6
2018-Feb-12 02:01N 38°53' W 076°24'510.2
2018-Feb-12 01:30N 38°58' W 076°23'4 8.7
2018-Feb-12 01:01N 39°02' W 076°23'4 8.4
2018-Feb-12 00:31N 39°07' W 076°24'4 8.0
2018-Feb-12 00:01N 39°10' W 076°26'4 7.7
2018-Feb-11 23:31N 39°12' W 076°30'4 7.5
2018-Feb-11 23:00N 39°15' W 076°34'1 0.9
2018-Feb-11 22:26N 39°15' W 076°34'0 0.3
2018-Feb-11 21:59N 39°15' W 076°34'0 0.0
2018-Feb-11 21:29N 39°15' W 076°34'0 0.0
2018-Feb-11 20:59N 39°15' W 076°34'0 0.0
2018-Feb-11 20:29N 39°15' W 076°34'0 0.0
2018-Feb-11 19:59N 39°15' W 076°34'0 0.0
2018-Feb-11 19:29N 39°15' W 076°34'0 0.0
2018-Feb-11 18:59N 39°15' W 076°34'0 0.0
2018-Feb-11 18:29N 39°15' W 076°34'0 0.0
2018-Feb-11 17:59N 39°15' W 076°34'0 0.0
2018-Feb-11 17:29N 39°15' W 076°34'0 0.0
2018-Feb-11 16:59N 39°15' W 076°34'0 0.0
2018-Feb-11 16:29N 39°15' W 076°34'0 0.0
2018-Feb-11 15:59N 39°15' W 076°34'0 0.0
2018-Feb-11 15:29N 39°15' W 076°34'0 0.0
2018-Feb-11 14:59N 39°15' W 076°34'0 0.0
2018-Feb-11 14:29N 39°15' W 076°34'0 0.0
2018-Feb-11 13:59N 39°15' W 076°34'0 0.0
2018-Feb-11 13:29N 39°15' W 076°34'0 0.0
2018-Feb-11 12:59N 39°15' W 076°34'0 0.0
2018-Feb-11 12:29N 39°15' W 076°34'0 0.0
2018-Feb-11 11:59N 39°15' W 076°34'0 0.0
2018-Feb-11 11:29N 39°15' W 076°34'0 0.0
2018-Feb-11 10:59N 39°15' W 076°34'0 0.0
2018-Feb-11 10:29N 39°15' W 076°34'0 0.0
2018-Feb-11 09:59N 39°15' W 076°34'0 0.0
2018-Feb-11 09:29N 39°15' W 076°34'0 0.0
2018-Feb-11 08:59N 39°15' W 076°34'0 0.0
2018-Feb-11 08:29N 39°15' W 076°34'0 0.0
2018-Feb-11 07:59N 39°15' W 076°34'0 0.0
2018-Feb-11 07:29N 39°15' W 076°34'0 0.0
2018-Feb-11 06:59N 39°15' W 076°34'0 0.0
2018-Feb-11 06:29N 39°15' W 076°34'0 0.0
2018-Feb-11 05:59N 39°15' W 076°34'0 0.0
2018-Feb-11 05:29N 39°15' W 076°34'0 0.0
2018-Feb-11 04:59N 39°15' W 076°34'0 0.0
2018-Feb-11 04:29N 39°15' W 076°34'0 0.0
2018-Feb-11 03:59N 39°15' W 076°34'0 0.0
2018-Feb-11 03:29N 39°15' W 076°34'0 0.0
2018-Feb-11 02:59N 39°15' W 076°34'0 0.0
2018-Feb-11 02:29N 39°15' W 076°34'0 0.0
2018-Feb-11 01:59N 39°15' W 076°34'0 0.0
2018-Feb-11 01:29N 39°15' W 076°34'0 0.0
2018-Feb-11 00:59N 39°15' W 076°34'0 0.0
2018-Feb-11 00:29N 39°15' W 076°34'0 0.0
2018-Feb-10 23:59N 39°15' W 076°34'0 0.0
2018-Feb-10 23:29N 39°15' W 076°34'0 0.0
2018-Feb-10 22:59N 39°15' W 076°34'0 0.0
2018-Feb-10 22:29N 39°15' W 076°34'0 0.0
2018-Feb-10 21:59N 39°15' W 076°34'0 0.0
2018-Feb-10 21:29N 39°15' W 076°34'0 0.0
2018-Feb-10 20:59N 39°15' W 076°34'0 0.0
2018-Feb-10 20:29N 39°15' W 076°34'0 0.0
2018-Feb-10 19:59N 39°15' W 076°34'0 0.0
2018-Feb-10 19:29N 39°15' W 076°34'0 0.0
2018-Feb-10 18:59N 39°15' W 076°34'0 0.0
2018-Feb-10 18:29N 39°15' W 076°34'0 0.0
2018-Feb-10 17:59N 39°15' W 076°34'0 0.0
2018-Feb-10 17:29N 39°15' W 076°34'0 0.0
2018-Feb-10 16:59N 39°15' W 076°34'0 0.0
2018-Feb-10 16:29N 39°15' W 076°34'0 0.0
2018-Feb-10 15:59N 39°15' W 076°34'0 0.0
2018-Feb-10 15:29N 39°15' W 076°34'0 0.0
2018-Feb-10 14:59N 39°15' W 076°34'0 0.0
2018-Feb-10 14:29N 39°15' W 076°34'0 0.0
2018-Feb-10 13:59N 39°15' W 076°34'0 0.0
2018-Feb-10 13:29N 39°15' W 076°34'0 0.0
2018-Feb-10 12:59N 39°15' W 076°34'0 0.0
2018-Feb-10 12:29N 39°15' W 076°34'0 0.0
2018-Feb-10 11:59N 39°15' W 076°34'0 0.0
2018-Feb-10 11:29N 39°15' W 076°34'0 0.0
2018-Feb-10 10:59N 39°15' W 076°34'0 0.0
2018-Feb-10 10:29N 39°15' W 076°34'0 0.0
2018-Feb-10 09:59N 39°15' W 076°34'0 0.0
2018-Feb-10 09:29N 39°15' W 076°34'0 0.0
2018-Feb-10 08:59N 39°15' W 076°34'0 0.0
2018-Feb-10 08:29N 39°15' W 076°34'0 0.0
2018-Feb-10 07:59N 39°15' W 076°34'0 0.0
2018-Feb-10 07:29N 39°15' W 076°34'0 0.0
2018-Feb-10 06:59N 39°15' W 076°34'0 0.0
2018-Feb-10 06:29N 39°15' W 076°34'0 0.0
2018-Feb-10 05:59N 39°15' W 076°34'0 0.0
2018-Feb-10 05:29N 39°15' W 076°34'0 0.0
2018-Feb-10 04:59N 39°15' W 076°34'0 0.0
2018-Feb-10 04:29N 39°15' W 076°34'0 0.0
2018-Feb-10 03:59N 39°15' W 076°34'0 0.0
2018-Feb-10 03:29N 39°15' W 076°34'0 0.0
2018-Feb-10 02:59N 39°15' W 076°34'0 0.0
2018-Feb-10 02:29N 39°15' W 076°34'0 0.0
2018-Feb-10 01:59N 39°15' W 076°34'0 0.0
2018-Feb-10 01:29N 39°15' W 076°34'0 0.0
2018-Feb-10 00:59N 39°15' W 076°34'0 0.0
2018-Feb-10 00:29N 39°15' W 076°34'0 0.0
2018-Feb-09 23:59N 39°15' W 076°34'0 0.0
2018-Feb-09 23:29N 39°15' W 076°34'0 0.0
2018-Feb-09 22:59N 39°15' W 076°34'0 0.0
2018-Feb-09 22:44N 39°15' W 076°34'0 0.0
2018-Feb-08 22:31N 39°15' W 076°34'20 0.9
2018-Feb-08 01:30N 38°57' W 076°24'0 0.0
2018-Feb-08 01:00N 38°57' W 076°24'0 0.0
2018-Feb-08 00:30N 38°57' W 076°24'0 0.2
2018-Feb-08 00:00N 38°57' W 076°24'0 0.2
2018-Feb-07 23:30N 38°57' W 076°24'0 0.1
2018-Feb-07 23:00N 38°57' W 076°24'0 0.2
2018-Feb-07 22:30N 38°57' W 076°24'0 0.2
2018-Feb-07 22:00N 38°57' W 076°24'0 0.3
2018-Feb-07 21:30N 38°57' W 076°24'0 0.0
2018-Feb-07 09:30N 38°57' W 076°24'0 0.0
2018-Feb-07 09:00N 38°57' W 076°24'0 0.0
2018-Feb-07 08:30N 38°57' W 076°24'0 0.0
2018-Feb-07 08:00N 38°57' W 076°24'0 0.0
2018-Feb-07 07:30N 38°57' W 076°24'0 0.1
2018-Feb-07 07:00N 38°57' W 076°24'0 0.3
2018-Feb-07 06:30N 38°57' W 076°24'0 0.4
2018-Feb-07 06:00N 38°57' W 076°24'0 0.1
2018-Feb-07 05:30N 38°57' W 076°24'0 0.0
2018-Feb-07 05:00N 38°57' W 076°24'0 0.0
2018-Feb-07 04:30N 38°57' W 076°24'0 0.1
2018-Feb-07 04:00N 38°57' W 076°24'0 0.1
2018-Feb-07 03:30N 38°57' W 076°24'0 0.1
2018-Feb-07 03:00N 38°57' W 076°24'0 0.1
2018-Feb-07 02:30N 38°57' W 076°24'0 0.1
2018-Feb-07 01:57N 38°57' W 076°24'0 0.1
2018-Feb-07 01:30N 38°57' W 076°24'0 0.0
2018-Feb-07 01:00N 38°57' W 076°24'0 0.0
2018-Feb-07 00:30N 38°57' W 076°24'0 0.0
2018-Feb-07 00:00N 38°57' W 076°24'0 0.0
2018-Feb-06 23:30N 38°57' W 076°24'0 0.0
2018-Feb-06 23:00N 38°57' W 076°24'0 0.0
2018-Feb-06 22:30N 38°57' W 076°24'0 0.0
2018-Feb-06 22:00N 38°57' W 076°24'0 0.0
2018-Feb-06 21:27N 38°57' W 076°24'0 0.1
2018-Feb-06 21:00N 38°57' W 076°24'0 0.0
2018-Feb-06 20:30N 38°57' W 076°24'0 0.0
2018-Feb-06 20:00N 38°57' W 076°24'0 0.0
2018-Feb-06 19:30N 38°57' W 076°24'0 0.2
2018-Feb-06 19:00N 38°57' W 076°24'0 0.3
2018-Feb-06 18:30N 38°57' W 076°24'0 0.2
2018-Feb-06 18:00N 38°57' W 076°24'0 0.1
2018-Feb-06 17:30N 38°57' W 076°24'0 0.0
2018-Feb-06 17:00N 38°57' W 076°24'0 0.0
2018-Feb-06 16:30N 38°57' W 076°24'0 0.0
2018-Feb-06 16:00N 38°57' W 076°24'0 0.0
2018-Feb-06 15:30N 38°57' W 076°24'0 0.0
2018-Feb-06 15:00N 38°57' W 076°24'0 0.0
2018-Feb-06 14:30N 38°57' W 076°24'0 0.0
2018-Feb-06 14:00N 38°57' W 076°24'0 0.0
2018-Feb-06 13:30N 38°57' W 076°24'0 0.0
2018-Feb-06 13:00N 38°57' W 076°24'0 0.0
2018-Feb-06 12:30N 38°57' W 076°24'0 0.0
2018-Feb-06 12:00N 38°57' W 076°24'0 0.1
2018-Feb-06 11:30N 38°57' W 076°24'0 0.1
2018-Feb-06 11:00N 38°57' W 076°24'0 0.1
2018-Feb-06 10:30N 38°57' W 076°24'0 0.3
2018-Feb-06 10:00N 38°57' W 076°24'0 0.2
2018-Feb-06 09:30N 38°57' W 076°24'0 0.1
2018-Feb-06 09:00N 38°57' W 076°24'0 0.0
2018-Feb-06 08:30N 38°57' W 076°24'0 0.0
2018-Feb-06 08:00N 38°57' W 076°24'0 0.0
2018-Feb-06 07:30N 38°57' W 076°24'0 0.1
2018-Feb-06 07:00N 38°57' W 076°24'0 0.0
2018-Feb-06 06:30N 38°57' W 076°24'0 0.1
2018-Feb-06 06:00N 38°57' W 076°24'0 0.1
2018-Feb-06 05:30N 38°57' W 076°24'0 0.2
2018-Feb-06 05:00N 38°57' W 076°24'0 0.1
2018-Feb-06 04:30N 38°57' W 076°24'0 0.1
2018-Feb-06 04:00N 38°57' W 076°24'0 0.1
2018-Feb-06 03:30N 38°57' W 076°24'0 0.0
2018-Feb-06 03:00N 38°57' W 076°24'0 0.0
2018-Feb-06 02:30N 38°57' W 076°24'0 0.1
2018-Feb-06 02:00N 38°57' W 076°24'0 0.3
2018-Feb-06 01:30N 38°57' W 076°24'0 0.2
2018-Feb-06 01:00N 38°57' W 076°24'0 0.1
2018-Feb-06 00:30N 38°57' W 076°24'0 0.0
2018-Feb-06 00:00N 38°57' W 076°24'0 0.0
2018-Feb-05 23:30N 38°57' W 076°24'0 0.0
2018-Feb-05 23:00N 38°57' W 076°24'0 0.0
2018-Feb-05 22:27N 38°57' W 076°24'0 0.0
2018-Feb-05 21:57N 38°57' W 076°24'0 0.0
2018-Feb-05 21:30N 38°57' W 076°24'0 0.0
2018-Feb-05 21:00N 38°57' W 076°24'0 0.0
2018-Feb-05 20:30N 38°57' W 076°24'0 0.0
2018-Feb-05 20:00N 38°57' W 076°24'0 0.0
2018-Feb-05 19:30N 38°57' W 076°24'0 0.0
2018-Feb-05 19:00N 38°57' W 076°24'0 0.0
2018-Feb-05 18:30N 38°57' W 076°24'0 0.1
2018-Feb-05 18:00N 38°57' W 076°24'0 0.1
2018-Feb-05 17:30N 38°57' W 076°24'0 0.0
2018-Feb-05 17:00N 38°57' W 076°24'0 0.0
2018-Feb-05 16:30N 38°57' W 076°24'0 0.0
2018-Feb-05 16:00N 38°57' W 076°24'0 0.0
2018-Feb-05 15:30N 38°57' W 076°24'0 0.1
2018-Feb-05 15:00N 38°57' W 076°24'0 0.1
2018-Feb-05 14:30N 38°57' W 076°24'0 0.1
2018-Feb-05 14:00N 38°57' W 076°24'0 0.0
2018-Feb-05 13:30N 38°57' W 076°24'0 0.0
2018-Feb-05 13:00N 38°57' W 076°24'0 0.1
2018-Feb-05 12:30N 38°57' W 076°24'0 0.1
2018-Feb-05 12:00N 38°57' W 076°24'0 0.3
2018-Feb-05 11:30N 38°57' W 076°24'0 0.2
2018-Feb-05 11:00N 38°57' W 076°24'0 0.1
2018-Feb-05 10:30N 38°57' W 076°24'0 0.0
2018-Feb-05 10:00N 38°57' W 076°24'0 0.0
2018-Feb-05 09:30N 38°57' W 076°24'0 0.0
2018-Feb-05 09:00N 38°57' W 076°24'0 0.0
2018-Feb-05 08:30N 38°57' W 076°24'0 0.0
2018-Feb-05 08:00N 38°57' W 076°24'0 0.0
2018-Feb-05 07:30N 38°57' W 076°24'0 0.0
2018-Feb-05 07:00N 38°57' W 076°24'0 0.0
2018-Feb-05 06:30N 38°57' W 076°24'0 0.1
2018-Feb-05 05:30N 38°57' W 076°24'0 0.2
2018-Feb-05 05:00N 38°57' W 076°24'0 0.2
2018-Feb-05 04:30N 38°57' W 076°24'0 0.2
2018-Feb-05 04:00N 38°57' W 076°24'0 0.1
2018-Feb-05 03:30N 38°57' W 076°24'0 0.1
2018-Feb-05 03:00N 38°57' W 076°24'0 0.0
2018-Feb-05 02:30N 38°57' W 076°24'0 0.0
2018-Feb-05 02:00N 38°57' W 076°24'0 0.1
2018-Feb-05 01:30N 38°57' W 076°24'0 0.1
2018-Feb-05 01:00N 38°57' W 076°24'0 0.3
2018-Feb-05 00:30N 38°57' W 076°24'0 0.4
2018-Feb-05 00:00N 38°57' W 076°24'0 0.1
2018-Feb-04 23:30N 38°57' W 076°24'0 0.0
2018-Feb-04 23:00N 38°57' W 076°24'0 0.1
2018-Feb-04 22:30N 38°57' W 076°24'0 0.1
2018-Feb-04 22:00N 38°57' W 076°24'0 0.0
2018-Feb-04 21:30N 38°57' W 076°24'0 0.0
2018-Feb-04 21:00N 38°57' W 076°24'0 0.0
2018-Feb-04 20:00N 38°57' W 076°24'0 0.0
2018-Feb-04 19:30N 38°57' W 076°24'0 0.0
2018-Feb-04 19:00N 38°57' W 076°24'0 0.0
2018-Feb-04 18:30N 38°57' W 076°24'0 0.0
2018-Feb-04 18:00N 38°57' W 076°24'0 0.1
2018-Feb-04 17:30N 38°57' W 076°24'0 0.1
2018-Feb-04 15:30N 38°57' W 076°24'0 0.0
2018-Feb-04 15:00N 38°57' W 076°24'0 0.0
2018-Feb-04 14:30N 38°57' W 076°24'0 0.0
2018-Feb-04 14:00N 38°57' W 076°24'0 0.0
2018-Feb-04 13:30N 38°57' W 076°24'0 0.0
2018-Feb-04 13:00N 38°57' W 076°24'0 0.0
2018-Feb-04 12:30N 38°57' W 076°24'0 0.0
2018-Feb-04 12:00N 38°57' W 076°24'0 0.0
2018-Feb-04 11:30N 38°57' W 076°24'0 0.0
2018-Feb-04 10:00N 38°57' W 076°24'0 0.1
2018-Feb-04 09:00N 38°57' W 076°24'0 0.1
2018-Feb-04 08:30N 38°57' W 076°24'0 0.0
2018-Feb-04 08:00N 38°57' W 076°24'0 0.0
2018-Feb-04 07:30N 38°57' W 076°24'0 0.0
2018-Feb-04 07:00N 38°57' W 076°24'0 0.0
2018-Feb-04 06:30N 38°57' W 076°24'0 0.0
2018-Feb-04 06:00N 38°57' W 076°24'0 0.0
2018-Feb-04 05:30N 38°57' W 076°24'0 0.0
2018-Feb-04 05:00N 38°57' W 076°24'0 0.0
2018-Feb-04 04:30N 38°57' W 076°24'0 0.0
2018-Feb-04 04:00N 38°57' W 076°24'0 0.0
2018-Feb-04 03:30N 38°57' W 076°24'0 0.0
2018-Feb-04 03:00N 38°57' W 076°24'0 0.0
2018-Feb-04 02:30N 38°57' W 076°24'0 0.0
2018-Feb-04 02:00N 38°57' W 076°24'0 0.0
2018-Feb-04 01:30N 38°57' W 076°24'0 0.0
2018-Feb-04 01:00N 38°57' W 076°24'0 0.0
2018-Feb-04 00:30N 38°57' W 076°24'0 0.0
2018-Feb-04 00:00N 38°57' W 076°24'0 0.0
2018-Feb-03 23:30N 38°57' W 076°24'0 0.0
2018-Feb-03 23:00N 38°57' W 076°24'0 0.0
2018-Feb-03 22:30N 38°57' W 076°24'0 0.0
2018-Feb-03 22:00N 38°57' W 076°24'0 0.1
2018-Feb-03 21:30N 38°57' W 076°24'0 0.0
2018-Feb-03 21:00N 38°57' W 076°24'0 0.0
2018-Feb-03 20:30N 38°57' W 076°24'0 0.0
2018-Feb-03 20:00N 38°57' W 076°24'0 0.1
2018-Feb-03 18:30N 38°57' W 076°24'0 0.1
2018-Feb-03 18:00N 38°57' W 076°24'0 0.1
2018-Feb-03 17:30N 38°57' W 076°24'0 0.1
2018-Feb-03 17:00N 38°57' W 076°24'0 0.1
2018-Feb-03 16:00N 38°57' W 076°24'0 0.0
2018-Feb-03 15:30N 38°57' W 076°24'0 0.0
2018-Feb-03 15:00N 38°57' W 076°24'0 0.0
2018-Feb-03 14:30N 38°57' W 076°24'0 0.0
2018-Feb-03 14:00N 38°57' W 076°24'0 0.0
2018-Feb-03 13:30N 38°57' W 076°24'0 0.0
2018-Feb-03 13:00N 38°57' W 076°24'0 0.0
2018-Feb-03 12:30N 38°57' W 076°24'0 0.0
2018-Feb-03 12:00N 38°57' W 076°24'0 0.0
2018-Feb-03 11:30N 38°57' W 076°24'0 0.0
2018-Feb-03 11:00N 38°57' W 076°24'0 0.0
2018-Feb-03 10:30N 38°57' W 076°24'0 0.1
2018-Feb-03 10:00N 38°57' W 076°24'0 0.1
2018-Feb-03 09:30N 38°57' W 076°24'0 0.3
2018-Feb-03 09:00N 38°57' W 076°24'0 0.2
2018-Feb-03 08:30N 38°57' W 076°24'0 0.1
2018-Feb-03 08:00N 38°57' W 076°24'0 0.0
2018-Feb-03 06:30N 38°57' W 076°24'0 0.0
2018-Feb-03 06:00N 38°57' W 076°24'0 0.1
2018-Feb-03 05:30N 38°57' W 076°24'0 0.0
2018-Feb-03 05:00N 38°57' W 076°24'0 0.0
2018-Feb-03 04:00N 38°57' W 076°24'0 0.0
2018-Feb-03 03:30N 38°57' W 076°24'0 0.1
2018-Feb-03 02:00N 38°57' W 076°24'0 0.1
2018-Feb-03 01:30N 38°57' W 076°24'0 0.1
2018-Feb-03 00:57N 38°57' W 076°24'0 0.1
2018-Feb-03 00:30N 38°57' W 076°24'0 0.1
2018-Feb-03 00:00N 38°57' W 076°24'0 0.0
2018-Feb-02 23:30N 38°57' W 076°24'0 0.1
2018-Feb-02 23:00N 38°57' W 076°24'0 0.0
2018-Feb-02 22:30N 38°57' W 076°24'0 0.2
2018-Feb-02 22:00N 38°57' W 076°24'0 0.1
2018-Feb-02 21:30N 38°57' W 076°24'0 0.0
2018-Feb-02 21:00N 38°57' W 076°24'0 0.1
2018-Feb-02 20:30N 38°57' W 076°24'0 0.1
2018-Feb-02 20:00N 38°57' W 076°24'0 0.0
2018-Feb-02 19:00N 38°57' W 076°24'0 0.0
2018-Feb-02 18:30N 38°57' W 076°24'0 0.0
2018-Feb-02 18:00N 38°57' W 076°24'0 0.0
2018-Feb-02 17:30N 38°57' W 076°24'  
Track history (hours):
 
Tides and Currents Weather Stations Pressure Air Temp Water Temp Dewpoint Dewpoint Depression Visibility Wind Speed Wind Dir Waves Ship Positions

Aquaprincess

Last reported at 2018-Feb-12 17:03 UTC. Time now 2018-Feb-19 04:35 UTC.
Position N 36°43' W 075°37'.

Length 292 m; draft 14.3 m.

Type: Cargo ship. MMSI: 240981000.

Date/timePositionNaut miles runAvg speedWind from/ knotsBaromVisibWave heightAir tempDewpointWater temp
2018-Feb-12 17:03N 36°43' W 075°37'1 9.4
2018-Feb-12 16:56N 36°44' W 075°38'4 8.7
2018-Feb-12 16:29N 36°47' W 075°42'4 8.4
2018-Feb-12 16:00N 36°49' W 075°46'4 9.1
2018-Feb-12 15:31N 36°51' W 075°50'5 9.3
2018-Feb-12 15:01N 36°55' W 075°55'4 8.6
2018-Feb-12 14:30N 36°57' W 075°59'4 8.5
2018-Feb-12 14:00N 37°01' W 076°02'4 8.8
2018-Feb-12 13:30N 37°04' W 076°06'4 8.3
2018-Feb-12 12:59N 37°08' W 076°08'4 7.7
2018-Feb-12 12:29N 37°12' W 076°09'4 7.9
2018-Feb-12 11:59N 37°15' W 076°08'41 8.4
2018-Feb-12 07:04N 37°57' W 076°10'112.2
2018-Feb-12 06:59N 37°57' W 076°10'611.9
2018-Feb-12 06:28N 38°03' W 076°13'2311.8
2018-Feb-12 04:31N 38°25' W 076°21'112.0
2018-Feb-12 04:27N 38°26' W 076°22'911.6
2018-Feb-12 03:41N 38°34' W 076°26'211.5
2018-Feb-12 03:30N 38°36' W 076°26'611.3
2018-Feb-12 03:00N 38°42' W 076°26'611.5
2018-Feb-12 02:31N 38°47' W 076°25'611.6
2018-Feb-12 02:01N 38°53' W 076°24'510.2
2018-Feb-12 01:30N 38°58' W 076°23'4 8.7
2018-Feb-12 01:01N 39°02' W 076°23'4 8.4
2018-Feb-12 00:31N 39°07' W 076°24'4 8.0
2018-Feb-12 00:01N 39°10' W 076°26'4 7.7
2018-Feb-11 23:31N 39°12' W 076°30'4 7.5
2018-Feb-11 23:00N 39°15' W 076°34'1 0.9
2018-Feb-11 22:26N 39°15' W 076°34'0 0.3
2018-Feb-11 21:59N 39°15' W 076°34'0 0.0
2018-Feb-11 21:29N 39°15' W 076°34'0 0.0
2018-Feb-11 20:59N 39°15' W 076°34'0 0.0
2018-Feb-11 20:29N 39°15' W 076°34'0 0.0
2018-Feb-11 19:59N 39°15' W 076°34'0 0.0
2018-Feb-11 19:29N 39°15' W 076°34'0 0.0
2018-Feb-11 18:59N 39°15' W 076°34'0 0.0
2018-Feb-11 18:29N 39°15' W 076°34'0 0.0
2018-Feb-11 17:59N 39°15' W 076°34'0 0.0
2018-Feb-11 17:29N 39°15' W 076°34'0 0.0
2018-Feb-11 16:59N 39°15' W 076°34'0 0.0
2018-Feb-11 16:29N 39°15' W 076°34'0 0.0
2018-Feb-11 15:59N 39°15' W 076°34'0 0.0
2018-Feb-11 15:29N 39°15' W 076°34'0 0.0
2018-Feb-11 14:59N 39°15' W 076°34'0 0.0
2018-Feb-11 14:29N 39°15' W 076°34'0 0.0
2018-Feb-11 13:59N 39°15' W 076°34'0 0.0
2018-Feb-11 13:29N 39°15' W 076°34'0 0.0
2018-Feb-11 12:59N 39°15' W 076°34'0 0.0
2018-Feb-11 12:29N 39°15' W 076°34'0 0.0
2018-Feb-11 11:59N 39°15' W 076°34'0 0.0
2018-Feb-11 11:29N 39°15' W 076°34'0 0.0
2018-Feb-11 10:59N 39°15' W 076°34'0 0.0
2018-Feb-11 10:29N 39°15' W 076°34'0 0.0
2018-Feb-11 09:59N 39°15' W 076°34'0 0.0
2018-Feb-11 09:29N 39°15' W 076°34'0 0.0
2018-Feb-11 08:59N 39°15' W 076°34'0 0.0
2018-Feb-11 08:29N 39°15' W 076°34'0 0.0
2018-Feb-11 07:59N 39°15' W 076°34'0 0.0
2018-Feb-11 07:29N 39°15' W 076°34'0 0.0
2018-Feb-11 06:59N 39°15' W 076°34'0 0.0
2018-Feb-11 06:29N 39°15' W 076°34'0 0.0
2018-Feb-11 05:59N 39°15' W 076°34'0 0.0
2018-Feb-11 05:29N 39°15' W 076°34'0 0.0
2018-Feb-11 04:59N 39°15' W 076°34'0 0.0
2018-Feb-11 04:29N 39°15' W 076°34'0 0.0
2018-Feb-11 03:59N 39°15' W 076°34'0 0.0
2018-Feb-11 03:29N 39°15' W 076°34'0 0.0
2018-Feb-11 02:59N 39°15' W 076°34'0 0.0
2018-Feb-11 02:29N 39°15' W 076°34'0 0.0
2018-Feb-11 01:59N 39°15' W 076°34'0 0.0
2018-Feb-11 01:29N 39°15' W 076°34'0 0.0
2018-Feb-11 00:59N 39°15' W 076°34'0 0.0
2018-Feb-11 00:29N 39°15' W 076°34'0 0.0
2018-Feb-10 23:59N 39°15' W 076°34'0 0.0
2018-Feb-10 23:29N 39°15' W 076°34'0 0.0
2018-Feb-10 22:59N 39°15' W 076°34'0 0.0
2018-Feb-10 22:29N 39°15' W 076°34'0 0.0
2018-Feb-10 21:59N 39°15' W 076°34'0 0.0
2018-Feb-10 21:29N 39°15' W 076°34'0 0.0
2018-Feb-10 20:59N 39°15' W 076°34'0 0.0
2018-Feb-10 20:29N 39°15' W 076°34'0 0.0
2018-Feb-10 19:59N 39°15' W 076°34'0 0.0
2018-Feb-10 19:29N 39°15' W 076°34'0 0.0
2018-Feb-10 18:59N 39°15' W 076°34'0 0.0
2018-Feb-10 18:29N 39°15' W 076°34'0 0.0
2018-Feb-10 17:59N 39°15' W 076°34'0 0.0
2018-Feb-10 17:29N 39°15' W 076°34'0 0.0
2018-Feb-10 16:59N 39°15' W 076°34'0 0.0
2018-Feb-10 16:29N 39°15' W 076°34'0 0.0
2018-Feb-10 15:59N 39°15' W 076°34'0 0.0
2018-Feb-10 15:29N 39°15' W 076°34'0 0.0
2018-Feb-10 14:59N 39°15' W 076°34'0 0.0
2018-Feb-10 14:29N 39°15' W 076°34'0 0.0
2018-Feb-10 13:59N 39°15' W 076°34'0 0.0
2018-Feb-10 13:29N 39°15' W 076°34'0 0.0
2018-Feb-10 12:59N 39°15' W 076°34'0 0.0
2018-Feb-10 12:29N 39°15' W 076°34'0 0.0
2018-Feb-10 11:59N 39°15' W 076°34'0 0.0
2018-Feb-10 11:29N 39°15' W 076°34'0 0.0
2018-Feb-10 10:59N 39°15' W 076°34'0 0.0
2018-Feb-10 10:29N 39°15' W 076°34'0 0.0
2018-Feb-10 09:59N 39°15' W 076°34'0 0.0
2018-Feb-10 09:29N 39°15' W 076°34'0 0.0
2018-Feb-10 08:59N 39°15' W 076°34'0 0.0
2018-Feb-10 08:29N 39°15' W 076°34'0 0.0
2018-Feb-10 07:59N 39°15' W 076°34'0 0.0
2018-Feb-10 07:29N 39°15' W 076°34'0 0.0
2018-Feb-10 06:59N 39°15' W 076°34'0 0.0
2018-Feb-10 06:29N 39°15' W 076°34'0 0.0
2018-Feb-10 05:59N 39°15' W 076°34'0 0.0
2018-Feb-10 05:29N 39°15' W 076°34'0 0.0
2018-Feb-10 04:59N 39°15' W 076°34'0 0.0
2018-Feb-10 04:29N 39°15' W 076°34'0 0.0
2018-Feb-10 03:59N 39°15' W 076°34'0 0.0
2018-Feb-10 03:29N 39°15' W 076°34'0 0.0
2018-Feb-10 02:59N 39°15' W 076°34'0 0.0
2018-Feb-10 02:29N 39°15' W 076°34'0 0.0
2018-Feb-10 01:59N 39°15' W 076°34'0 0.0
2018-Feb-10 01:29N 39°15' W 076°34'0 0.0
2018-Feb-10 00:59N 39°15' W 076°34'0 0.0
2018-Feb-10 00:29N 39°15' W 076°34'0 0.0
2018-Feb-09 23:59N 39°15' W 076°34'0 0.0
2018-Feb-09 23:29N 39°15' W 076°34'0 0.0
2018-Feb-09 22:59N 39°15' W 076°34'0 0.0
2018-Feb-09 22:44N 39°15' W 076°34'0 0.0
2018-Feb-08 22:31N 39°15' W 076°34'20 0.9
2018-Feb-08 01:30N 38°57' W 076°24'0 0.0
2018-Feb-08 01:00N 38°57' W 076°24'0 0.0
2018-Feb-08 00:30N 38°57' W 076°24'0 0.2
2018-Feb-08 00:00N 38°57' W 076°24'0 0.2
2018-Feb-07 23:30N 38°57' W 076°24'0 0.1
2018-Feb-07 23:00N 38°57' W 076°24'0 0.2
2018-Feb-07 22:30N 38°57' W 076°24'0 0.2
2018-Feb-07 22:00N 38°57' W 076°24'0 0.3
2018-Feb-07 21:30N 38°57' W 076°24'0 0.0
2018-Feb-07 09:30N 38°57' W 076°24'0 0.0
2018-Feb-07 09:00N 38°57' W 076°24'0 0.0
2018-Feb-07 08:30N 38°57' W 076°24'0 0.0
2018-Feb-07 08:00N 38°57' W 076°24'0 0.0
2018-Feb-07 07:30N 38°57' W 076°24'0 0.1
2018-Feb-07 07:00N 38°57' W 076°24'0 0.3
2018-Feb-07 06:30N 38°57' W 076°24'0 0.4
2018-Feb-07 06:00N 38°57' W 076°24'0 0.1
2018-Feb-07 05:30N 38°57' W 076°24'0 0.0
2018-Feb-07 05:00N 38°57' W 076°24'0 0.0
2018-Feb-07 04:30N 38°57' W 076°24'0 0.1
2018-Feb-07 04:00N 38°57' W 076°24'0 0.1
2018-Feb-07 03:30N 38°57' W 076°24'0 0.1
2018-Feb-07 03:00N 38°57' W 076°24'0 0.1
2018-Feb-07 02:30N 38°57' W 076°24'0 0.1
2018-Feb-07 01:57N 38°57' W 076°24'0 0.1
2018-Feb-07 01:30N 38°57' W 076°24'0 0.0
2018-Feb-07 01:00N 38°57' W 076°24'0 0.0
2018-Feb-07 00:30N 38°57' W 076°24'0 0.0
2018-Feb-07 00:00N 38°57' W 076°24'0 0.0
2018-Feb-06 23:30N 38°57' W 076°24'0 0.0
2018-Feb-06 23:00N 38°57' W 076°24'0 0.0
2018-Feb-06 22:30N 38°57' W 076°24'0 0.0
2018-Feb-06 22:00N 38°57' W 076°24'0 0.0
2018-Feb-06 21:27N 38°57' W 076°24'0 0.1
2018-Feb-06 21:00N 38°57' W 076°24'0 0.0
2018-Feb-06 20:30N 38°57' W 076°24'0 0.0
2018-Feb-06 20:00N 38°57' W 076°24'0 0.0
2018-Feb-06 19:30N 38°57' W 076°24'0 0.2
2018-Feb-06 19:00N 38°57' W 076°24'0 0.3
2018-Feb-06 18:30N 38°57' W 076°24'0 0.2
2018-Feb-06 18:00N 38°57' W 076°24'0 0.1
2018-Feb-06 17:30N 38°57' W 076°24'0 0.0
2018-Feb-06 17:00N 38°57' W 076°24'0 0.0
2018-Feb-06 16:30N 38°57' W 076°24'0 0.0
2018-Feb-06 16:00N 38°57' W 076°24'0 0.0
2018-Feb-06 15:30N 38°57' W 076°24'0 0.0
2018-Feb-06 15:00N 38°57' W 076°24'0 0.0
2018-Feb-06 14:30N 38°57' W 076°24'0 0.0
2018-Feb-06 14:00N 38°57' W 076°24'0 0.0
2018-Feb-06 13:30N 38°57' W 076°24'0 0.0
2018-Feb-06 13:00N 38°57' W 076°24'0 0.0
2018-Feb-06 12:30N 38°57' W 076°24'0 0.0
2018-Feb-06 12:00N 38°57' W 076°24'0 0.1
2018-Feb-06 11:30N 38°57' W 076°24'0 0.1
2018-Feb-06 11:00N 38°57' W 076°24'0 0.1
2018-Feb-06 10:30N 38°57' W 076°24'0 0.3
2018-Feb-06 10:00N 38°57' W 076°24'0 0.2
2018-Feb-06 09:30N 38°57' W 076°24'0 0.1
2018-Feb-06 09:00N 38°57' W 076°24'0 0.0
2018-Feb-06 08:30N 38°57' W 076°24'0 0.0
2018-Feb-06 08:00N 38°57' W 076°24'0 0.0
2018-Feb-06 07:30N 38°57' W 076°24'0 0.1
2018-Feb-06 07:00N 38°57' W 076°24'0 0.0
2018-Feb-06 06:30N 38°57' W 076°24'0 0.1
2018-Feb-06 06:00N 38°57' W 076°24'0 0.1
2018-Feb-06 05:30N 38°57' W 076°24'0 0.2
2018-Feb-06 05:00N 38°57' W 076°24'0 0.1
2018-Feb-06 04:30N 38°57' W 076°24'0 0.1
2018-Feb-06 04:00N 38°57' W 076°24'0 0.1
2018-Feb-06 03:30N 38°57' W 076°24'0 0.0
2018-Feb-06 03:00N 38°57' W 076°24'0 0.0
2018-Feb-06 02:30N 38°57' W 076°24'0 0.1
2018-Feb-06 02:00N 38°57' W 076°24'0 0.3
2018-Feb-06 01:30N 38°57' W 076°24'0 0.2
2018-Feb-06 01:00N 38°57' W 076°24'0 0.1
2018-Feb-06 00:30N 38°57' W 076°24'0 0.0
2018-Feb-06 00:00N 38°57' W 076°24'0 0.0
2018-Feb-05 23:30N 38°57' W 076°24'0 0.0
2018-Feb-05 23:00N 38°57' W 076°24'0 0.0
2018-Feb-05 22:27N 38°57' W 076°24'0 0.0
2018-Feb-05 21:57N 38°57' W 076°24'0 0.0
2018-Feb-05 21:30N 38°57' W 076°24'0 0.0
2018-Feb-05 21:00N 38°57' W 076°24'0 0.0
2018-Feb-05 20:30N 38°57' W 076°24'0 0.0
2018-Feb-05 20:00N 38°57' W 076°24'0 0.0
2018-Feb-05 19:30N 38°57' W 076°24'0 0.0
2018-Feb-05 19:00N 38°57' W 076°24'0 0.0
2018-Feb-05 18:30N 38°57' W 076°24'0 0.1
2018-Feb-05 18:00N 38°57' W 076°24'0 0.1
2018-Feb-05 17:30N 38°57' W 076°24'0 0.0
2018-Feb-05 17:00N 38°57' W 076°24'0 0.0
2018-Feb-05 16:30N 38°57' W 076°24'0 0.0
2018-Feb-05 16:00N 38°57' W 076°24'0 0.0
2018-Feb-05 15:30N 38°57' W 076°24'0 0.1
2018-Feb-05 15:00N 38°57' W 076°24'0 0.1
2018-Feb-05 14:30N 38°57' W 076°24'0 0.1
2018-Feb-05 14:00N 38°57' W 076°24'0 0.0
2018-Feb-05 13:30N 38°57' W 076°24'0 0.0
2018-Feb-05 13:00N 38°57' W 076°24'0 0.1
2018-Feb-05 12:30N 38°57' W 076°24'0 0.1
2018-Feb-05 12:00N 38°57' W 076°24'0 0.3
2018-Feb-05 11:30N 38°57' W 076°24'0 0.2
2018-Feb-05 11:00N 38°57' W 076°24'0 0.1
2018-Feb-05 10:30N 38°57' W 076°24'0 0.0
2018-Feb-05 10:00N 38°57' W 076°24'0 0.0
2018-Feb-05 09:30N 38°57' W 076°24'0 0.0
2018-Feb-05 09:00N 38°57' W 076°24'0 0.0
2018-Feb-05 08:30N 38°57' W 076°24'0 0.0
2018-Feb-05 08:00N 38°57' W 076°24'0 0.0
2018-Feb-05 07:30N 38°57' W 076°24'0 0.0
2018-Feb-05 07:00N 38°57' W 076°24'0 0.0
2018-Feb-05 06:30N 38°57' W 076°24'0 0.1
2018-Feb-05 05:30N 38°57' W 076°24'0 0.2
2018-Feb-05 05:00N 38°57' W 076°24'0 0.2
2018-Feb-05 04:30N 38°57' W 076°24'0 0.2
2018-Feb-05 04:00N 38°57' W 076°24'0 0.1
2018-Feb-05 03:30N 38°57' W 076°24'0 0.1
2018-Feb-05 03:00N 38°57' W 076°24'0 0.0
2018-Feb-05 02:30N 38°57' W 076°24'0 0.0
2018-Feb-05 02:00N 38°57' W 076°24'0 0.1
2018-Feb-05 01:30N 38°57' W 076°24'0 0.1
2018-Feb-05 01:00N 38°57' W 076°24'0 0.3
2018-Feb-05 00:30N 38°57' W 076°24'0 0.4
2018-Feb-05 00:00N 38°57' W 076°24'0 0.1
2018-Feb-04 23:30N 38°57' W 076°24'0 0.0
2018-Feb-04 23:00N 38°57' W 076°24'0 0.1
2018-Feb-04 22:30N 38°57' W 076°24'0 0.1
2018-Feb-04 22:00N 38°57' W 076°24'0 0.0
2018-Feb-04 21:30N 38°57' W 076°24'0 0.0
2018-Feb-04 21:00N 38°57' W 076°24'0 0.0
2018-Feb-04 20:00N 38°57' W 076°24'0 0.0
2018-Feb-04 19:30N 38°57' W 076°24'0 0.0
2018-Feb-04 19:00N 38°57' W 076°24'0 0.0
2018-Feb-04 18:30N 38°57' W 076°24'0 0.0
2018-Feb-04 18:00N 38°57' W 076°24'0 0.1
2018-Feb-04 17:30N 38°57' W 076°24'0 0.1
2018-Feb-04 15:30N 38°57' W 076°24'0 0.0
2018-Feb-04 15:00N 38°57' W 076°24'0 0.0
2018-Feb-04 14:30N 38°57' W 076°24'0 0.0
2018-Feb-04 14:00N 38°57' W 076°24'0 0.0
2018-Feb-04 13:30N 38°57' W 076°24'0 0.0
2018-Feb-04 13:00N 38°57' W 076°24'0 0.0
2018-Feb-04 12:30N 38°57' W 076°24'0 0.0
2018-Feb-04 12:00N 38°57' W 076°24'0 0.0
2018-Feb-04 11:30N 38°57' W 076°24'0 0.0
2018-Feb-04 10:00N 38°57' W 076°24'0 0.1
2018-Feb-04 09:00N 38°57' W 076°24'0 0.1
2018-Feb-04 08:30N 38°57' W 076°24'0 0.0
2018-Feb-04 08:00N 38°57' W 076°24'0 0.0
2018-Feb-04 07:30N 38°57' W 076°24'0 0.0
2018-Feb-04 07:00N 38°57' W 076°24'0 0.0
2018-Feb-04 06:30N 38°57' W 076°24'0 0.0
2018-Feb-04 06:00N 38°57' W 076°24'0 0.0
2018-Feb-04 05:30N 38°57' W 076°24'0 0.0
2018-Feb-04 05:00N 38°57' W 076°24'0 0.0
2018-Feb-04 04:30N 38°57' W 076°24'0 0.0
2018-Feb-04 04:00N 38°57' W 076°24'0 0.0
2018-Feb-04 03:30N 38°57' W 076°24'0 0.0
2018-Feb-04 03:00N 38°57' W 076°24'0 0.0
2018-Feb-04 02:30N 38°57' W 076°24'0 0.0
2018-Feb-04 02:00N 38°57' W 076°24'0 0.0
2018-Feb-04 01:30N 38°57' W 076°24'0 0.0
2018-Feb-04 01:00N 38°57' W 076°24'0 0.0
2018-Feb-04 00:30N 38°57' W 076°24'0 0.0
2018-Feb-04 00:00N 38°57' W 076°24'0 0.0
2018-Feb-03 23:30N 38°57' W 076°24'0 0.0
2018-Feb-03 23:00N 38°57' W 076°24'0 0.0
2018-Feb-03 22:30N 38°57' W 076°24'0 0.0
2018-Feb-03 22:00N 38°57' W 076°24'0 0.1
2018-Feb-03 21:30N 38°57' W 076°24'0 0.0
2018-Feb-03 21:00N 38°57' W 076°24'0 0.0
2018-Feb-03 20:30N 38°57' W 076°24'0 0.0
2018-Feb-03 20:00N 38°57' W 076°24'0 0.1
2018-Feb-03 18:30N 38°57' W 076°24'0 0.1
2018-Feb-03 18:00N 38°57' W 076°24'0 0.1
2018-Feb-03 17:30N 38°57' W 076°24'0 0.1
2018-Feb-03 17:00N 38°57' W 076°24'0 0.1
2018-Feb-03 16:00N 38°57' W 076°24'0 0.0
2018-Feb-03 15:30N 38°57' W 076°24'0 0.0
2018-Feb-03 15:00N 38°57' W 076°24'0 0.0
2018-Feb-03 14:30N 38°57' W 076°24'0 0.0
2018-Feb-03 14:00N 38°57' W 076°24'0 0.0
2018-Feb-03 13:30N 38°57' W 076°24'0 0.0
2018-Feb-03 13:00N 38°57' W 076°24'0 0.0
2018-Feb-03 12:30N 38°57' W 076°24'0 0.0
2018-Feb-03 12:00N 38°57' W 076°24'0 0.0
2018-Feb-03 11:30N 38°57' W 076°24'0 0.0
2018-Feb-03 11:00N 38°57' W 076°24'0 0.0
2018-Feb-03 10:30N 38°57' W 076°24'0 0.1
2018-Feb-03 10:00N 38°57' W 076°24'0 0.1
2018-Feb-03 09:30N 38°57' W 076°24'0 0.3
2018-Feb-03 09:00N 38°57' W 076°24'0 0.2
2018-Feb-03 08:30N 38°57' W 076°24'0 0.1
2018-Feb-03 08:00N 38°57' W 076°24'0 0.0
2018-Feb-03 06:30N 38°57' W 076°24'0 0.0
2018-Feb-03 06:00N 38°57' W 076°24'0 0.1
2018-Feb-03 05:30N 38°57' W 076°24'0 0.0
2018-Feb-03 05:00N 38°57' W 076°24'0 0.0
2018-Feb-03 04:00N 38°57' W 076°24'0 0.0
2018-Feb-03 03:30N 38°57' W 076°24'0 0.1
2018-Feb-03 02:00N 38°57' W 076°24'0 0.1
2018-Feb-03 01:30N 38°57' W 076°24'0 0.1
2018-Feb-03 00:57N 38°57' W 076°24'0 0.1
2018-Feb-03 00:30N 38°57' W 076°24'0 0.1
2018-Feb-03 00:00N 38°57' W 076°24'0 0.0
2018-Feb-02 23:30N 38°57' W 076°24'0 0.1
2018-Feb-02 23:00N 38°57' W 076°24'0 0.0
2018-Feb-02 22:30N 38°57' W 076°24'0 0.2
2018-Feb-02 22:00N 38°57' W 076°24'0 0.1
2018-Feb-02 21:30N 38°57' W 076°24'0 0.0
2018-Feb-02 21:00N 38°57' W 076°24'0 0.1
2018-Feb-02 20:30N 38°57' W 076°24'0 0.1
2018-Feb-02 20:00N 38°57' W 076°24'0 0.0
2018-Feb-02 19:00N 38°57' W 076°24'0 0.0
2018-Feb-02 18:30N 38°57' W 076°24'0 0.0
2018-Feb-02 18:00N 38°57' W 076°24'0 0.0
2018-Feb-02 17:30N 38°57' W 076°24'  

Dump ship's entire track history